Time;durP1;ratioP1;P1;durP2;ratioP2;P2;SDS_P1;SDS_P2;PMS_P1;PMS_P2;Temp;Humidity;BMP_temperature;BMP_pressure;BME280_temperature;BME280_humidity;BME280_pressure;Samples;Min_cycle;Max_cycle;Signal;HPM_P1;HPM_P2
2022/09/25 00:01:20;;;;;;;12.27;11.20;;;15.20;99.90;;;;;;5043621;28;20213;-86
2022/09/25 00:03:46;;;;;;;12.37;11.27;;;15.30;99.90;;;;;;5033472;28;20224;-87
2022/09/25 00:06:18;;;;;;;11.70;10.70;;;15.20;99.90;;;;;;5029757;28;20190;-86
2022/09/25 00:08:45;;;;;;;11.57;10.60;;;15.10;99.90;;;;;;5026267;28;20183;-88
2022/09/25 00:11:14;;;;;;;10.73;9.77;;;15.20;99.90;;;;;;5034024;28;20206;-89
2022/09/25 00:13:40;;;;;;;11.90;10.77;;;15.20;99.90;;;;;;5031131;28;20182;-85
2022/09/25 00:16:09;;;;;;;10.73;9.93;;;15.30;99.90;;;;;;5024436;28;20536;-87
2022/09/25 00:21:19;;;;;;;11.07;10.07;;;15.40;99.90;;;;;;5037478;28;20245;-87
2022/09/25 00:23:46;;;;;;;9.90;9.10;;;15.40;99.90;;;;;;5017295;28;20202;-87
2022/09/25 00:26:14;;;;;;;10.50;9.70;;;15.50;99.90;;;;;;5042410;28;20182;-88
2022/09/25 00:28:40;;;;;;;10.30;9.40;;;15.60;99.90;;;;;;5044421;28;20708;-87
2022/09/25 00:31:07;;;;;;;10.03;9.20;;;15.60;99.90;;;;;;5045347;28;20289;-87
2022/09/25 00:33:34;;;;;;;11.17;10.17;;;15.50;99.90;;;;;;5043501;28;20182;-86
2022/09/25 00:36:06;;;;;;;11.98;10.98;;;15.50;99.90;;;;;;5044615;28;20200;-87
2022/09/25 00:38:34;;;;;;;12.33;11.43;;;15.40;99.90;;;;;;5044056;28;20195;-88
2022/09/25 00:41:00;;;;;;;11.65;10.57;;;15.40;99.90;;;;;;5026946;28;20257;-88
2022/09/25 00:43:43;;;;;;;11.63;10.73;;;15.40;99.90;;;;;;5025649;28;20212;-87
2022/09/25 00:46:40;;;;;;;11.18;10.23;;;15.50;99.90;;;;;;5033570;28;20190;-87
2022/09/25 00:49:13;;;;;;;10.90;10.00;;;15.60;99.90;;;;;;5044319;28;20214;-88
2022/09/25 00:51:47;;;;;;;12.00;11.00;;;15.50;99.90;;;;;;5044789;28;20197;-87
2022/09/25 00:54:21;;;;;;;11.23;10.35;;;15.50;99.90;;;;;;5043298;28;20197;-87
2022/09/25 00:56:49;;;;;;;11.10;10.20;;;15.50;99.90;;;;;;5043535;28;20182;-86
2022/09/25 00:59:23;;;;;;;11.30;10.37;;;15.40;99.90;;;;;;5024964;28;20250;-88
2022/09/25 01:01:48;;;;;;;11.00;10.00;;;15.30;99.90;;;;;;5023121;28;20212;-87
2022/09/25 01:04:17;;;;;;;11.45;10.43;;;15.30;99.90;;;;;;5040316;28;20224;-88
2022/09/25 01:06:43;;;;;;;11.88;10.73;;;15.40;99.90;;;;;;5044079;28;20179;-87
2022/09/25 01:09:09;;;;;;;11.32;10.18;;;15.30;99.90;;;;;;5042373;28;20193;-87
2022/09/25 01:11:34;;;;;;;12.97;11.90;;;15.30;99.90;;;;;;5042355;28;20682;-86
2022/09/25 01:14:03;;;;;;;12.40;11.40;;;15.30;99.90;;;;;;5040503;28;20497;-86
2022/09/25 01:16:53;;;;;;;13.27;12.00;;;15.10;99.90;;;;;;5041456;28;20738;-86
2022/09/25 01:19:37;;;;;;;14.27;12.87;;;15.00;99.90;;;;;;5026250;28;20625;-89
2022/09/25 01:22:25;;;;;;;13.90;12.67;;;14.80;99.90;;;;;;5026271;28;20215;-88
2022/09/25 01:25:10;;;;;;;13.10;12.10;;;14.80;99.90;;;;;;5034523;28;20663;-88
2022/09/25 01:27:51;;;;;;;12.63;11.63;;;14.80;99.90;;;;;;5024148;28;20185;-88
2022/09/25 01:30:19;;;;;;;13.23;12.13;;;14.90;99.90;;;;;;5021622;28;20193;-88
2022/09/25 01:32:53;;;;;;;13.87;12.67;;;14.80;99.90;;;;;;5030414;28;20723;-88
2022/09/25 01:35:51;;;;;;;13.20;12.10;;;14.70;99.90;;;;;;5032558;28;20184;-88
2022/09/25 01:38:41;;;;;;;12.53;11.33;;;14.70;99.90;;;;;;5019613;28;20216;-89
2022/09/25 01:41:19;;;;;;;13.17;11.97;;;14.70;99.90;;;;;;5024020;28;20227;-87
2022/09/25 01:44:13;;;;;;;12.13;11.00;;;14.70;99.90;;;;;;5030440;28;20205;-89
2022/09/25 01:46:44;;;;;;;11.63;10.53;;;14.80;99.90;;;;;;5030153;28;20192;-89
2022/09/25 01:49:23;;;;;;;10.53;9.63;;;14.80;99.90;;;;;;5024757;28;20196;-89
2022/09/25 01:51:52;;;;;;;13.20;10.70;;;14.90;99.90;;;;;;5026643;28;20899;-88
2022/09/25 01:54:35;;;;;;;10.20;9.37;;;14.90;99.90;;;;;;5032385;28;20183;-88
2022/09/25 01:57:13;;;;;;;11.73;10.83;;;14.80;99.90;;;;;;5028116;28;20188;-88
2022/09/25 01:59:58;;;;;;;12.23;11.13;;;15.00;99.90;;;;;;5012566;28;20199;-88
2022/09/25 02:02:32;;;;;;;10.53;9.63;;;15.00;99.90;;;;;;5027729;28;20224;-88
2022/09/25 02:05:05;;;;;;;12.80;11.70;;;15.00;99.90;;;;;;5029845;28;20257;-88
2022/09/25 02:07:36;;;;;;;12.67;11.57;;;15.00;99.90;;;;;;5029860;28;20182;-89
2022/09/25 02:10:15;;;;;;;11.70;10.67;;;15.00;99.90;;;;;;5030616;28;20604;-89
2022/09/25 02:12:46;;;;;;;11.37;10.47;;;14.90;99.90;;;;;;5033918;28;20572;-88
2022/09/25 02:15:16;;;;;;;10.77;9.97;;;15.00;99.90;;;;;;5031100;28;20188;-87
2022/09/25 02:20:49;;;;;;;11.37;10.37;;;15.20;99.90;;;;;;5032338;28;20189;-89
2022/09/25 02:23:22;;;;;;;11.63;10.67;;;15.20;99.90;;;;;;5032536;28;20578;-88
2022/09/25 02:25:55;;;;;;;10.43;9.43;;;15.10;99.90;;;;;;5039676;28;20220;-89
2022/09/25 02:28:22;;;;;;;10.53;9.73;;;15.20;99.90;;;;;;5054386;28;20230;-86
2022/09/25 02:30:50;;;;;;;9.65;8.85;;;15.20;99.90;;;;;;5046499;28;20234;-87
2022/09/25 02:33:16;;;;;;;10.83;9.87;;;15.20;99.90;;;;;;5057525;28;20217;-86
2022/09/25 02:35:41;;;;;;;10.43;9.33;;;15.30;99.90;;;;;;5040181;28;20658;-89
2022/09/25 02:38:08;;;;;;;10.47;9.57;;;15.30;99.90;;;;;;5015373;28;20285;-89
2022/09/25 02:40:42;;;;;;;10.37;9.37;;;15.20;99.90;;;;;;5031857;28;20188;-88
2022/09/25 02:43:15;;;;;;;9.73;8.83;;;15.30;99.90;;;;;;5030817;28;20288;-88
2022/09/25 02:45:55;;;;;;;10.10;9.07;;;15.40;99.90;;;;;;5040007;28;20711;-87
2022/09/25 02:48:58;;;;;;;9.60;8.82;;;15.40;99.90;;;;;;5040000;28;20647;-87
2022/09/25 02:51:34;;;;;;;11.27;10.13;;;15.40;99.90;;;;;;5025390;28;20206;-88
2022/09/25 02:54:12;;;;;;;9.43;8.63;;;15.30;99.90;;;;;;5038775;28;20253;-87
2022/09/25 02:56:46;;;;;;;10.33;9.53;;;15.30;99.90;;;;;;5025547;28;20523;-86
2022/09/25 02:59:21;;;;;;;10.13;9.13;;;15.30;99.90;;;;;;5037519;28;20285;-88
2022/09/25 03:01:47;;;;;;;8.73;8.10;;;15.30;99.90;;;;;;5023077;28;20292;-85
2022/09/25 03:04:16;;;;;;;10.32;9.45;;;15.30;99.90;;;;;;5035931;28;20234;-84
2022/09/25 03:06:42;;;;;;;9.30;8.60;;;15.30;99.90;;;;;;5031187;28;20190;-85
2022/09/25 03:09:09;;;;;;;9.80;9.00;;;15.30;99.90;;;;;;5023011;28;20262;-85
2022/09/25 03:11:41;;;;;;;8.70;8.00;;;15.40;99.90;;;;;;5031655;28;20209;-85
2022/09/25 03:14:06;;;;;;;11.07;10.15;;;15.40;99.90;;;;;;5027392;28;20191;-89
2022/09/25 03:16:54;;;;;;;10.40;9.55;;;15.40;99.90;;;;;;5027396;28;20694;-85
2022/09/25 03:19:19;;;;;;;10.85;9.95;;;15.40;99.90;;;;;;5033567;28;20713;-85
2022/09/25 03:21:46;;;;;;;10.02;9.13;;;15.30;99.90;;;;;;5034073;28;20244;-85
2022/09/25 03:24:12;;;;;;;9.50;8.70;;;15.20;99.90;;;;;;5042318;28;20215;-85
2022/09/25 03:26:39;;;;;;;9.90;9.00;;;15.20;99.90;;;;;;5035184;28;20213;-86
2022/09/25 03:29:05;;;;;;;10.70;9.85;;;15.20;99.90;;;;;;5042896;28;20229;-86
2022/09/25 03:31:31;;;;;;;11.25;10.35;;;15.30;99.90;;;;;;5043913;28;20207;-85
2022/09/25 03:33:57;;;;;;;11.13;10.23;;;15.30;99.90;;;;;;5027439;28;20191;-85
2022/09/25 03:36:26;;;;;;;11.10;10.20;;;15.30;99.90;;;;;;5024013;28;20238;-85
2022/09/25 03:38:56;;;;;;;11.50;10.53;;;15.30;99.90;;;;;;5026341;28;20221;-85
2022/09/25 03:41:22;;;;;;;11.03;10.13;;;15.30;99.90;;;;;;5039962;28;20208;-86
2022/09/25 03:43:50;;;;;;;11.07;9.97;;;15.30;99.90;;;;;;5042810;28;20337;-86
2022/09/25 03:46:25;;;;;;;10.50;9.70;;;15.30;99.90;;;;;;5039899;28;20536;-85
2022/09/25 03:48:52;;;;;;;10.90;10.07;;;15.30;99.90;;;;;;5036267;28;20199;-88
2022/09/25 03:51:19;;;;;;;11.57;10.67;;;15.20;99.90;;;;;;5034948;28;20212;-86
2022/09/25 03:53:45;;;;;;;11.90;10.90;;;15.20;99.90;;;;;;5040771;28;20202;-86
2022/09/25 03:56:17;;;;;;;11.82;10.63;;;15.20;99.90;;;;;;5039982;28;20202;-86
2022/09/25 03:58:43;;;;;;;11.80;10.60;;;15.20;99.90;;;;;;5023553;28;20176;-87
2022/09/25 04:01:09;;;;;;;12.37;11.30;;;15.20;99.90;;;;;;5040691;28;20218;-86
2022/09/25 04:03:36;;;;;;;13.60;12.40;;;15.20;99.90;;;;;;5037637;28;20214;-86
2022/09/25 04:06:03;;;;;;;13.10;12.03;;;15.10;99.90;;;;;;5038603;28;20186;-87
2022/09/25 04:08:30;;;;;;;14.77;13.47;;;15.00;99.90;;;;;;5042007;28;20251;-88
2022/09/25 04:10:59;;;;;;;13.97;12.87;;;14.90;99.90;;;;;;5036959;28;20273;-86
2022/09/25 04:13:28;;;;;;;14.03;12.87;;;14.70;99.90;;;;;;5042392;28;20194;-88
2022/09/25 04:15:55;;;;;;;14.17;12.83;;;14.70;99.90;;;;;;5042084;28;20188;-85
2022/09/25 04:18:21;;;;;;;13.73;12.47;;;14.70;99.90;;;;;;5030931;28;20219;-86
2022/09/25 04:20:47;;;;;;;14.73;13.50;;;14.70;99.90;;;;;;5045560;28;20202;-90
2022/09/25 04:23:13;;;;;;;14.33;13.13;;;14.70;99.90;;;;;;5053348;28;20205;-89
2022/09/25 04:25:38;;;;;;;13.17;12.00;;;14.80;99.90;;;;;;5054648;28;20188;-90
2022/09/25 04:28:05;;;;;;;14.63;13.33;;;14.80;99.90;;;;;;5050139;28;20209;-85
2022/09/25 04:30:32;;;;;;;14.80;13.50;;;14.90;99.90;;;;;;5027265;28;20470;-86
2022/09/25 04:35:42;;;;;;;13.67;12.57;;;14.90;99.90;;;;;;5027332;28;20580;-86
2022/09/25 04:38:08;;;;;;;14.10;12.73;;;14.90;99.90;;;;;;5036838;28;20185;-87
2022/09/25 04:40:35;;;;;;;13.30;12.20;;;14.90;99.90;;;;;;5040583;28;20205;-88
2022/09/25 04:43:03;;;;;;;13.87;12.67;;;14.90;99.90;;;;;;5030068;28;20229;-86
2022/09/25 04:45:29;;;;;;;13.50;12.30;;;14.90;99.90;;;;;;5021671;28;20568;-85
2022/09/25 04:47:58;;;;;;;14.43;13.13;;;14.90;99.90;;;;;;5020523;28;20211;-86
2022/09/25 04:50:25;;;;;;;13.90;12.50;;;14.90;99.90;;;;;;5040087;28;20645;-86
2022/09/25 04:52:51;;;;;;;13.93;12.63;;;15.00;99.90;;;;;;5027077;28;20203;-87
2022/09/25 04:55:18;;;;;;;13.80;12.70;;;15.00;99.90;;;;;;5032470;28;20221;-86
2022/09/25 04:57:44;;;;;;;12.83;11.83;;;14.90;99.90;;;;;;5039683;28;20189;-86
2022/09/25 05:00:15;;;;;;;14.47;12.90;;;15.00;99.90;;;;;;5042140;28;20637;-86
2022/09/25 05:02:41;;;;;;;12.10;11.10;;;14.90;99.90;;;;;;5011521;28;20735;-86
2022/09/25 05:05:07;;;;;;;13.20;11.97;;;14.90;99.90;;;;;;5038341;28;20191;-85
2022/09/25 05:07:34;;;;;;;16.33;15.03;;;14.90;99.90;;;;;;5025419;28;20202;-86
2022/09/25 05:09:59;;;;;;;14.17;12.87;;;14.90;99.90;;;;;;5032832;28;20187;-86
2022/09/25 05:12:25;;;;;;;13.77;12.57;;;14.90;99.90;;;;;;5040731;28;20216;-88
2022/09/25 05:14:51;;;;;;;13.30;12.27;;;14.90;99.90;;;;;;5038471;28;20198;-87
2022/09/25 05:17:16;;;;;;;11.50;10.60;;;14.80;99.90;;;;;;5021815;28;20194;-89
2022/09/25 05:19:42;;;;;;;13.47;12.37;;;14.80;99.90;;;;;;5037008;28;20277;-90
2022/09/25 05:22:08;;;;;;;12.63;11.43;;;14.90;99.90;;;;;;5042596;28;20272;-86
2022/09/25 05:24:34;;;;;;;12.57;11.57;;;14.90;99.90;;;;;;5037412;28;20183;-85
2022/09/25 05:27:00;;;;;;;11.83;10.83;;;14.90;99.90;;;;;;5023874;28;20178;-88
2022/09/25 05:29:26;;;;;;;10.33;9.53;;;14.90;99.90;;;;;;5036714;28;20204;-87
2022/09/25 05:31:51;;;;;;;10.43;9.63;;;14.80;99.90;;;;;;5021068;28;20198;-87
2022/09/25 05:34:17;;;;;;;11.40;10.40;;;14.80;99.90;;;;;;5021614;28;20280;-86
2022/09/25 05:36:43;;;;;;;10.77;9.87;;;14.90;99.90;;;;;;5022059;28;20279;-85
2022/09/25 05:39:12;;;;;;;11.60;10.57;;;14.90;99.90;;;;;;5036275;28;20596;-87
2022/09/25 05:41:37;;;;;;;10.37;9.37;;;14.90;99.90;;;;;;5040991;28;20230;-87
2022/09/25 05:44:08;;;;;;;10.77;9.87;;;14.90;99.90;;;;;;5040800;28;20222;-87
2022/09/25 05:46:34;;;;;;;10.73;9.80;;;14.90;99.90;;;;;;5036287;28;20427;-87
2022/09/25 05:49:01;;;;;;;12.07;10.97;;;14.90;99.90;;;;;;5041257;28;20183;-90
2022/09/25 05:51:27;;;;;;;10.73;9.83;;;14.80;99.90;;;;;;5037168;28;20214;-88
2022/09/25 05:53:53;;;;;;;11.17;10.07;;;14.80;99.90;;;;;;5040167;28;20195;-89
2022/09/25 05:56:19;;;;;;;9.90;9.00;;;14.90;99.90;;;;;;5041904;28;20637;-87
2022/09/25 05:58:47;;;;;;;9.30;8.60;;;14.90;99.90;;;;;;5026526;28;20265;-90
2022/09/25 06:01:13;;;;;;;8.93;8.23;;;15.00;99.90;;;;;;5043765;28;20217;-87
2022/09/25 06:03:38;;;;;;;9.80;9.00;;;15.10;99.90;;;;;;5043387;28;20306;-89
2022/09/25 06:06:05;;;;;;;9.80;9.10;;;15.10;99.90;;;;;;5036697;28;20195;-88
2022/09/25 06:08:31;;;;;;;9.40;8.50;;;15.10;99.90;;;;;;5034632;28;20784;-87
2022/09/25 06:10:57;;;;;;;9.43;8.70;;;15.00;99.90;;;;;;5044777;28;20281;-88
2022/09/25 06:13:24;;;;;;;9.80;8.80;;;15.00;99.90;;;;;;5045179;28;20202;-87
2022/09/25 06:15:51;;;;;;;11.00;10.00;;;15.10;99.90;;;;;;5040567;28;20201;-88
2022/09/25 06:18:21;;;;;;;9.40;8.60;;;14.90;99.90;;;;;;5044205;28;20186;-88
2022/09/25 06:20:48;;;;;;;9.43;8.73;;;14.60;99.90;;;;;;5044946;28;20285;-88
2022/09/25 06:23:14;;;;;;;10.37;9.43;;;14.60;99.90;;;;;;5042149;28;20211;-88
2022/09/25 06:25:40;;;;;;;10.33;9.47;;;14.70;99.90;;;;;;5032363;28;20184;-87
2022/09/25 06:28:06;;;;;;;10.00;9.10;;;14.60;99.90;;;;;;5046070;28;20200;-87
2022/09/25 06:30:34;;;;;;;9.47;8.67;;;14.50;99.90;;;;;;5043803;28;20184;-87
2022/09/25 06:33:09;;;;;;;10.53;9.50;;;14.60;99.90;;;;;;5044421;28;20204;-88
2022/09/25 06:35:39;;;;;;;10.57;9.67;;;14.50;99.90;;;;;;5029851;28;20667;-85
2022/09/25 06:38:05;;;;;;;10.10;9.13;;;14.50;99.90;;;;;;5028170;28;20185;-86
2022/09/25 06:40:31;;;;;;;10.77;9.77;;;14.40;99.90;;;;;;5034655;28;20197;-89
2022/09/25 06:43:00;;;;;;;10.27;9.27;;;14.40;99.90;;;;;;5048792;28;20227;-90
2022/09/25 06:45:31;;;;;;;10.77;9.77;;;14.50;99.90;;;;;;5033999;28;20187;-88
2022/09/25 06:48:05;;;;;;;10.70;9.80;;;14.50;99.90;;;;;;5032956;28;20195;-86
2022/09/25 06:50:45;;;;;;;9.70;8.90;;;14.50;99.90;;;;;;5039252;28;20221;-88
2022/09/25 06:53:12;;;;;;;10.77;9.97;;;14.40;99.90;;;;;;5029133;28;20192;-86
2022/09/25 06:55:39;;;;;;;10.60;9.70;;;14.50;99.90;;;;;;5028503;28;20712;-86
2022/09/25 06:58:07;;;;;;;11.07;10.07;;;14.50;99.90;;;;;;5036372;28;20193;-86
2022/09/25 07:00:33;;;;;;;11.17;10.23;;;14.50;99.90;;;;;;5029095;28;20225;-86
2022/09/25 07:05:46;;;;;;;11.10;10.10;;;14.60;99.90;;;;;;5043167;28;20205;-86
2022/09/25 07:08:15;;;;;;;10.97;9.97;;;14.50;99.90;;;;;;5042538;28;20184;-86
2022/09/25 07:10:50;;;;;;;11.80;10.60;;;14.60;99.90;;;;;;5042834;28;20194;-86
2022/09/25 07:13:23;;;;;;;12.50;11.20;;;14.60;99.90;;;;;;5038988;28;20201;-85
2022/09/25 07:16:06;;;;;;;11.03;10.10;;;14.60;99.90;;;;;;5041057;28;20192;-86
2022/09/25 07:18:33;;;;;;;11.60;10.50;;;14.60;99.90;;;;;;5042345;28;20189;-86
2022/09/25 07:21:19;;;;;;;11.03;10.03;;;14.60;99.90;;;;;;5037791;28;20225;-86
2022/09/25 07:23:50;;;;;;;11.40;10.40;;;14.60;99.90;;;;;;5027136;28;20744;-86
2022/09/25 07:26:21;;;;;;;11.83;10.83;;;14.70;99.90;;;;;;5044379;28;20270;-86
2022/09/25 07:28:51;;;;;;;10.80;9.80;;;14.70;99.90;;;;;;5043426;28;20748;-86
2022/09/25 07:31:19;;;;;;;10.17;9.17;;;14.70;99.90;;;;;;5044247;28;20227;-86
2022/09/25 07:33:46;;;;;;;10.93;9.93;;;14.70;99.90;;;;;;5039097;28;20194;-86
2022/09/25 07:36:13;;;;;;;11.40;10.50;;;14.80;99.90;;;;;;5039889;28;20222;-86
2022/09/25 07:38:38;;;;;;;13.20;11.07;;;14.80;99.90;;;;;;5044308;28;20204;-86
2022/09/25 07:41:05;;;;;;;11.90;10.90;;;14.90;99.90;;;;;;5044376;28;20216;-86
2022/09/25 07:43:32;;;;;;;10.17;9.27;;;15.00;99.90;;;;;;5039811;28;20274;-86
2022/09/25 07:45:58;;;;;;;11.27;10.37;;;15.00;99.90;;;;;;5036628;28;20221;-86
2022/09/25 07:48:24;;;;;;;13.27;11.97;;;15.10;99.90;;;;;;5035938;28;20186;-87
2022/09/25 07:50:50;;;;;;;13.50;12.30;;;14.80;99.90;;;;;;5042004;28;20208;-87
2022/09/25 07:53:17;;;;;;;13.30;12.20;;;14.80;99.90;;;;;;5033069;28;20286;-86
2022/09/25 07:55:44;;;;;;;13.83;12.67;;;14.80;99.90;;;;;;5033710;28;20198;-87
2022/09/25 07:58:10;;;;;;;13.63;12.33;;;14.70;99.90;;;;;;5043369;28;20197;-86
2022/09/25 08:00:36;;;;;;;12.87;11.83;;;14.80;99.90;;;;;;5043075;28;20193;-86
2022/09/25 08:03:02;;;;;;;13.93;12.77;;;14.80;99.90;;;;;;5022812;28;20220;-86
2022/09/25 08:05:28;;;;;;;14.00;12.70;;;15.10;99.90;;;;;;5034639;28;20261;-88
2022/09/25 08:07:54;;;;;;;14.17;12.83;;;15.30;99.90;;;;;;5042840;28;20208;-90
2022/09/25 08:10:20;;;;;;;14.63;12.37;;;15.20;99.90;;;;;;5052171;28;20229;-85
2022/09/25 08:12:46;;;;;;;14.30;13.13;;;15.20;99.90;;;;;;5038711;28;20220;-86
2022/09/25 08:15:13;;;;;;;15.17;13.20;;;15.20;99.90;;;;;;5031500;28;20200;-86
2022/09/25 08:17:39;;;;;;;13.50;12.40;;;15.30;99.90;;;;;;5025583;28;20216;-87
2022/09/25 08:20:06;;;;;;;14.93;13.63;;;15.40;99.90;;;;;;5040370;28;20185;-88
2022/09/25 08:22:32;;;;;;;14.70;13.47;;;15.50;99.90;;;;;;5039765;28;20318;-86
2022/09/25 08:25:01;;;;;;;15.67;14.27;;;15.40;99.90;;;;;;5036692;28;20220;-86
2022/09/25 08:27:30;;;;;;;17.03;15.37;;;15.40;99.90;;;;;;5040531;28;20197;-87
2022/09/25 08:29:57;;;;;;;15.20;13.90;;;15.40;99.90;;;;;;5040513;28;20219;-85
2022/09/25 08:32:23;;;;;;;15.90;14.40;;;15.40;99.90;;;;;;5037739;28;20421;-86
2022/09/25 08:34:48;;;;;;;15.13;13.80;;;15.50;99.90;;;;;;5036176;28;20254;-86
2022/09/25 08:37:15;;;;;;;15.90;14.60;;;15.50;99.90;;;;;;5036118;28;20184;-86
2022/09/25 08:39:41;;;;;;;14.83;13.53;;;15.50;99.90;;;;;;5039931;28;20613;-86
2022/09/25 08:42:16;;;;;;;14.30;13.00;;;15.40;99.90;;;;;;5037305;28;20210;-88
2022/09/25 08:49:00;;;;;;;13.40;12.10;;;15.50;99.90;;;;;;5036410;28;20196;-87
2022/09/25 08:50:32;;;;;;;11.77;10.87;;;15.40;99.90;;;;;;5024498;28;20208;-88
2022/09/25 08:53:20;;;;;;;10.73;9.83;;;15.40;99.90;;;;;;5040753;28;20199;-86
2022/09/25 08:58:35;;;;;;;13.43;12.23;;;15.50;99.90;;;;;;5035781;28;20194;-86
2022/09/25 09:01:04;;;;;;;12.43;11.33;;;15.30;99.90;;;;;;5028376;28;20212;-86
2022/09/25 09:03:32;;;;;;;12.47;11.47;;;15.50;99.90;;;;;;5038019;28;20296;-86
2022/09/25 09:06:03;;;;;;;13.27;12.07;;;15.70;99.90;;;;;;5037174;28;20187;-86
2022/09/25 09:08:32;;;;;;;12.80;11.60;;;15.70;99.90;;;;;;5039218;28;20837;-86
2022/09/25 09:11:06;;;;;;;13.37;12.27;;;15.50;99.90;;;;;;5035635;28;20222;-87
2022/09/25 09:14:15;;;;;;;14.37;13.07;;;15.20;99.90;;;;;;5034158;28;20200;-88
2022/09/25 09:16:51;;;;;;;13.47;12.37;;;15.00;99.90;;;;;;5027103;28;20251;-87
2022/09/25 09:19:17;;;;;;;13.50;12.30;;;14.90;99.90;;;;;;5035256;28;20181;-85
2022/09/25 09:22:12;;;;;;;14.10;12.80;;;15.10;99.90;;;;;;5027338;28;20558;-87
2022/09/25 09:24:56;;;;;;;15.03;13.53;;;15.20;99.90;;;;;;5038909;28;20220;-89
2022/09/25 09:27:53;;;;;;;14.70;13.50;;;15.10;99.90;;;;;;5038669;28;20195;-87
2022/09/25 09:30:26;;;;;;;13.37;12.27;;;15.10;99.90;;;;;;5037337;28;20654;-87
2022/09/25 09:33:01;;;;;;;13.17;12.07;;;15.20;99.90;;;;;;5034201;28;20184;-87
2022/09/25 09:35:38;;;;;;;13.03;11.70;;;15.40;99.90;;;;;;5033341;28;20236;-87
2022/09/25 09:38:17;;;;;;;13.90;12.60;;;15.40;99.90;;;;;;5035187;28;20194;-86
2022/09/25 09:40:44;;;;;;;14.17;12.97;;;15.50;99.90;;;;;;5035376;28;20175;-87
2022/09/25 09:43:15;;;;;;;13.83;12.43;;;15.50;99.90;;;;;;5030340;28;20209;-88
2022/09/25 09:45:51;;;;;;;14.23;12.93;;;15.60;99.90;;;;;;5034540;28;20197;-86
2022/09/25 09:48:27;;;;;;;13.17;11.97;;;15.90;99.90;;;;;;5035505;28;20488;-88
2022/09/25 09:51:01;;;;;;;12.03;11.03;;;15.90;99.60;;;;;;5036356;28;20207;-88
2022/09/25 09:53:56;;;;;;;12.43;11.40;;;16.40;97.20;;;;;;5037176;28;20915;-86
2022/09/25 09:56:32;;;;;;;12.77;11.57;;;16.90;95.80;;;;;;5027239;28;20683;-87
2022/09/25 09:59:03;;;;;;;12.48;11.48;;;17.10;91.60;;;;;;5030368;28;20572;-87
2022/09/25 10:01:34;;;;;;;12.68;11.55;;;17.20;91.10;;;;;;5032672;28;20216;-87
2022/09/25 10:04:13;;;;;;;11.63;10.73;;;17.40;90.10;;;;;;5028879;28;20223;-87
2022/09/25 10:07:17;;;;;;;11.95;10.95;;;17.90;88.40;;;;;;5028053;28;20240;-87
2022/09/25 10:09:43;;;;;;;13.68;12.32;;;18.20;85.70;;;;;;5031428;28;20748;-87
2022/09/25 10:12:34;;;;;;;12.77;11.77;;;18.30;84.60;;;;;;5028751;28;20286;-86
2022/09/25 10:15:14;;;;;;;12.25;11.15;;;17.80;86.10;;;;;;5038179;28;20667;-87
2022/09/25 10:17:41;;;;;;;13.20;12.00;;;17.70;87.40;;;;;;5036921;28;20184;-87
2022/09/25 10:20:22;;;;;;;12.18;11.18;;;17.50;88.80;;;;;;5037761;28;20224;-87
2022/09/25 10:22:52;;;;;;;12.23;11.20;;;17.50;88.90;;;;;;5035401;28;20224;-87
2022/09/25 10:25:39;;;;;;;13.77;12.23;;;17.40;90.10;;;;;;5036505;28;20181;-87
2022/09/25 10:28:41;;;;;;;13.60;12.45;;;17.50;93.80;;;;;;5039511;28;20193;-87
2022/09/25 10:31:08;;;;;;;11.82;10.90;;;17.30;93.90;;;;;;4997704;28;20217;-87
2022/09/25 10:33:33;;;;;;;13.00;12.00;;;17.20;96.50;;;;;;5035117;28;20541;-87
2022/09/25 10:35:59;;;;;;;12.88;11.77;;;16.90;94.80;;;;;;5038790;28;20677;-87
2022/09/25 10:38:32;;;;;;;12.82;11.73;;;16.70;98.10;;;;;;5039534;28;20535;-87
2022/09/25 10:41:01;;;;;;;11.33;10.37;;;16.40;99.90;;;;;;5037389;28;20216;-87
2022/09/25 10:43:28;;;;;;;12.68;11.65;;;16.40;99.90;;;;;;5039833;28;20296;-86
2022/09/25 10:46:14;;;;;;;12.90;11.80;;;16.40;99.90;;;;;;5052748;28;20187;-87
2022/09/25 10:51:26;;;;;;;12.52;11.32;;;16.30;99.90;;;;;;5052142;28;20230;-88
2022/09/25 10:54:12;;;;;;;12.68;11.68;;;16.30;99.90;;;;;;5053327;28;20228;-88
2022/09/25 10:56:39;;;;;;;12.05;11.02;;;16.30;99.90;;;;;;5046339;28;20194;-86
2022/09/25 10:59:20;;;;;;;12.32;10.80;;;16.20;99.90;;;;;;5041927;28;20224;-86
2022/09/25 11:01:49;;;;;;;11.70;10.70;;;16.10;99.90;;;;;;5039214;28;20222;-87
2022/09/25 11:04:20;;;;;;;12.57;11.55;;;16.10;99.90;;;;;;5031841;28;20232;-86
2022/09/25 11:06:51;;;;;;;13.40;12.15;;;16.20;99.90;;;;;;5042275;28;20190;-86
2022/09/25 11:09:26;;;;;;;12.68;11.57;;;16.10;99.90;;;;;;5036929;28;20199;-86
2022/09/25 11:12:05;;;;;;;11.98;10.88;;;16.10;99.90;;;;;;5039976;28;20230;-86
2022/09/25 11:14:34;;;;;;;12.30;11.20;;;16.10;99.90;;;;;;5022294;28;20195;-86
2022/09/25 11:17:04;;;;;;;10.60;9.70;;;16.20;99.90;;;;;;5042625;28;20191;-85
2022/09/25 11:19:37;;;;;;;10.57;9.68;;;16.20;99.90;;;;;;5039891;28;20323;-86
2022/09/25 11:22:09;;;;;;;10.48;9.57;;;16.30;99.90;;;;;;5037283;28;20220;-86
2022/09/25 11:24:43;;;;;;;10.25;9.35;;;16.30;99.90;;;;;;5041259;28;20215;-86
2022/09/25 11:27:25;;;;;;;10.25;9.32;;;16.30;99.90;;;;;;5040224;28;20246;-86
2022/09/25 11:30:15;;;;;;;10.60;9.68;;;16.30;99.90;;;;;;5032941;28;20639;-86
2022/09/25 11:32:49;;;;;;;9.30;8.60;;;16.30;99.90;;;;;;5040211;28;20207;-86
2022/09/25 11:35:35;;;;;;;9.35;8.45;;;16.30;99.90;;;;;;5033069;28;20207;-86
2022/09/25 11:41:10;;;;;;;8.68;7.93;;;16.30;99.90;;;;;;5039666;28;20302;-86
2022/09/25 11:41:21;;;;;;;13.35;11.98;;;16.30;99.90;;;;;;5037421;28;20278;-86
2022/09/25 11:44:15;;;;;;;10.52;9.50;;;16.30;99.90;;;;;;5040224;28;20211;-86
2022/09/25 11:47:23;;;;;;;9.65;8.85;;;16.30;99.90;;;;;;5039259;28;20199;-86
2022/09/25 11:49:52;;;;;;;9.88;9.07;;;16.30;99.90;;;;;;5034789;28;20195;-86
2022/09/25 11:52:28;;;;;;;7.65;7.00;;;16.30;99.90;;;;;;5035529;28;20745;-85
2022/09/25 11:55:00;;;;;;;7.53;6.75;;;16.30;99.90;;;;;;5035715;28;20205;-85
2022/09/25 11:57:52;;;;;;;7.43;6.80;;;16.20;99.90;;;;;;5027738;28;20217;-85
2022/09/25 12:00:52;;;;;;;6.85;6.35;;;16.20;99.90;;;;;;5029119;28;20202;-86
2022/09/25 12:03:36;;;;;;;6.75;6.25;;;16.30;99.90;;;;;;5025255;28;20248;-86
2022/09/25 12:06:20;;;;;;;7.43;6.82;;;16.20;99.90;;;;;;5037916;28;20211;-86
2022/09/25 12:08:56;;;;;;;6.88;6.38;;;16.30;99.90;;;;;;5036181;28;20180;-85
2022/09/25 12:11:24;;;;;;;5.70;5.30;;;16.20;99.90;;;;;;5035161;28;20235;-85
2022/09/25 12:14:02;;;;;;;5.95;5.40;;;16.10;99.90;;;;;;5036582;28;20199;-86
2022/09/25 12:16:57;;;;;;;4.97;4.63;;;16.10;99.90;;;;;;5038311;28;20259;-86
2022/09/25 12:19:41;;;;;;;5.20;4.80;;;16.20;99.30;;;;;;5033346;28;20200;-87
2022/09/25 12:22:19;;;;;;;5.68;5.28;;;16.40;99.90;;;;;;5036337;28;20572;-86
2022/09/25 12:25:00;;;;;;;8.00;7.30;;;16.40;99.90;;;;;;5034882;28;20196;-86
2022/09/25 12:27:55;;;;;;;8.23;7.57;;;16.50;99.70;;;;;;5031786;28;20606;-86
2022/09/25 12:30:24;;;;;;;7.90;7.30;;;16.60;99.10;;;;;;5037325;28;20239;-86
2022/09/25 12:33:02;;;;;;;7.85;7.15;;;16.80;99.90;;;;;;5037113;28;20267;-87
2022/09/25 12:35:45;;;;;;;11.48;10.38;;;16.70;99.90;;;;;;5036300;28;20204;-86
2022/09/25 12:38:18;;;;;;;10.88;9.77;;;16.50;99.40;;;;;;5033855;28;20215;-86
2022/09/25 12:40:47;;;;;;;11.68;10.63;;;16.60;98.10;;;;;;5031905;28;20188;-87
2022/09/25 12:43:32;;;;;;;13.30;12.20;;;16.40;99.60;;;;;;5036292;28;20221;-87
2022/09/25 12:46:16;;;;;;;11.05;10.15;;;16.20;99.30;;;;;;5035840;28;20191;-86
2022/09/25 12:48:51;;;;;;;19.85;18.02;;;16.30;99.70;;;;;;5032499;28;20261;-86
2022/09/25 12:51:20;;;;;;;15.13;13.73;;;16.40;99.40;;;;;;5030005;28;20204;-85
2022/09/25 12:53:55;;;;;;;16.58;15.15;;;16.40;97.70;;;;;;5040840;28;20210;-87
2022/09/25 12:56:35;;;;;;;14.18;12.82;;;16.50;98.40;;;;;;5034902;28;20187;-87
2022/09/25 12:59:28;;;;;;;12.63;11.55;;;16.50;99.50;;;;;;5039865;28;20222;-86
2022/09/25 13:02:11;;;;;;;11.63;10.68;;;16.50;99.30;;;;;;5030669;28;20877;-86
2022/09/25 13:05:04;;;;;;;11.60;10.23;;;16.60;99.90;;;;;;5037002;28;20683;-87
2022/09/25 13:07:56;;;;;;;10.75;9.25;;;16.50;99.90;;;;;;5037425;28;20242;-86
2022/09/25 13:10:40;;;;;;;11.65;10.55;;;16.40;99.90;;;;;;5037361;28;20183;-87
2022/09/25 13:13:19;;;;;;;12.77;11.63;;;16.60;99.90;;;;;;5028644;28;20227;-87
2022/09/25 13:15:51;;;;;;;14.65;13.35;;;16.70;98.90;;;;;;5030035;28;21040;-87
2022/09/25 13:18:22;;;;;;;14.05;12.85;;;16.60;98.80;;;;;;5034212;28;20184;-86